sensor_id;sensor_type;location;lat;lon;timestamp;temperature;humidity
20319;DHT22;10317;47.254;11.314;2023-02-17T00:00:31;1.30;99.90
20319;DHT22;10317;47.254;11.314;2023-02-17T00:02:57;1.30;99.90
20319;DHT22;10317;47.254;11.314;2023-02-17T00:05:24;1.30;99.90
20319;DHT22;10317;47.254;11.314;2023-02-17T00:07:50;1.30;99.90
20319;DHT22;10317;47.254;11.314;2023-02-17T00:10:16;1.30;99.90
20319;DHT22;10317;47.254;11.314;2023-02-17T00:12:42;1.30;99.90
20319;DHT22;10317;47.254;11.314;2023-02-17T00:15:08;1.30;99.90
20319;DHT22;10317;47.254;11.314;2023-02-17T00:17:33;1.30;99.90
20319;DHT22;10317;47.254;11.314;2023-02-17T00:19:59;1.30;99.90
20319;DHT22;10317;47.254;11.314;2023-02-17T00:22:25;1.30;99.90
20319;DHT22;10317;47.254;11.314;2023-02-17T00:24:51;1.30;99.90
20319;DHT22;10317;47.254;11.314;2023-02-17T00:27:17;1.30;99.90
20319;DHT22;10317;47.254;11.314;2023-02-17T00:29:44;1.30;99.90
20319;DHT22;10317;47.254;11.314;2023-02-17T00:32:09;1.30;99.90
20319;DHT22;10317;47.254;11.314;2023-02-17T00:34:36;1.30;99.90
20319;DHT22;10317;47.254;11.314;2023-02-17T00:37:02;1.20;99.90
20319;DHT22;10317;47.254;11.314;2023-02-17T00:39:27;1.20;99.90
20319;DHT22;10317;47.254;11.314;2023-02-17T00:41:53;1.20;99.90
20319;DHT22;10317;47.254;11.314;2023-02-17T00:44:21;1.20;99.90
20319;DHT22;10317;47.254;11.314;2023-02-17T00:46:47;1.20;99.90
20319;DHT22;10317;47.254;11.314;2023-02-17T00:49:19;1.30;99.90
20319;DHT22;10317;47.254;11.314;2023-02-17T00:51:45;1.30;99.90
20319;DHT22;10317;47.254;11.314;2023-02-17T00:54:13;1.30;99.90
20319;DHT22;10317;47.254;11.314;2023-02-17T00:56:39;1.30;99.90
20319;DHT22;10317;47.254;11.314;2023-02-17T00:59:04;1.40;99.90
20319;DHT22;10317;47.254;11.314;2023-02-17T01:01:31;1.30;99.90
20319;DHT22;10317;47.254;11.314;2023-02-17T01:03:56;1.30;99.90
20319;DHT22;10317;47.254;11.314;2023-02-17T01:06:28;1.30;99.90
20319;DHT22;10317;47.254;11.314;2023-02-17T01:08:54;1.30;99.90
20319;DHT22;10317;47.254;11.314;2023-02-17T01:11:25;1.30;99.90
20319;DHT22;10317;47.254;11.314;2023-02-17T01:13:51;1.30;99.90
20319;DHT22;10317;47.254;11.314;2023-02-17T01:16:23;1.30;99.90
20319;DHT22;10317;47.254;11.314;2023-02-17T01:18:49;1.30;99.90
20319;DHT22;10317;47.254;11.314;2023-02-17T01:21:23;1.30;99.90
20319;DHT22;10317;47.254;11.314;2023-02-17T01:23:54;1.30;99.90
20319;DHT22;10317;47.254;11.314;2023-02-17T01:26:23;1.30;99.90
20319;DHT22;10317;47.254;11.314;2023-02-17T01:28:49;1.20;99.90
20319;DHT22;10317;47.254;11.314;2023-02-17T01:31:15;1.20;99.90
20319;DHT22;10317;47.254;11.314;2023-02-17T01:33:42;1.20;99.90
20319;DHT22;10317;47.254;11.314;2023-02-17T01:36:10;1.20;99.90
20319;DHT22;10317;47.254;11.314;2023-02-17T01:38:36;1.10;99.90
20319;DHT22;10317;47.254;11.314;2023-02-17T01:41:03;1.10;99.90
20319;DHT22;10317;47.254;11.314;2023-02-17T01:43:29;1.10;99.90
20319;DHT22;10317;47.254;11.314;2023-02-17T01:45:56;1.10;99.90
20319;DHT22;10317;47.254;11.314;2023-02-17T01:51:10;1.10;99.90
20319;DHT22;10317;47.254;11.314;2023-02-17T01:53:42;1.10;99.90
20319;DHT22;10317;47.254;11.314;2023-02-17T01:56:11;1.10;99.90
20319;DHT22;10317;47.254;11.314;2023-02-17T01:58:42;1.00;99.90
20319;DHT22;10317;47.254;11.314;2023-02-17T02:01:09;1.00;99.90
20319;DHT22;10317;47.254;11.314;2023-02-17T02:03:36;1.00;99.90
20319;DHT22;10317;47.254;11.314;2023-02-17T02:06:06;1.00;99.90
20319;DHT22;10317;47.254;11.314;2023-02-17T02:08:39;1.00;99.90
20319;DHT22;10317;47.254;11.314;2023-02-17T02:11:05;1.00;99.90
20319;DHT22;10317;47.254;11.314;2023-02-17T02:13:31;1.00;99.90
20319;DHT22;10317;47.254;11.314;2023-02-17T02:16:15;1.00;99.90
20319;DHT22;10317;47.254;11.314;2023-02-17T02:19:00;1.00;99.90
20319;DHT22;10317;47.254;11.314;2023-02-17T02:22:02;1.00;99.90
20319;DHT22;10317;47.254;11.314;2023-02-17T02:35:06;1.10;99.90
20319;DHT22;10317;47.254;11.314;2023-02-17T02:37:51;1.10;99.90
20319;DHT22;10317;47.254;11.314;2023-02-17T02:40:21;1.10;99.90
20319;DHT22;10317;47.254;11.314;2023-02-17T02:42:48;1.00;99.90
20319;DHT22;10317;47.254;11.314;2023-02-17T02:45:16;1.00;99.90
20319;DHT22;10317;47.254;11.314;2023-02-17T02:47:48;1.00;99.90
20319;DHT22;10317;47.254;11.314;2023-02-17T02:53:22;1.00;99.90
20319;DHT22;10317;47.254;11.314;2023-02-17T02:55:54;1.00;99.90
20319;DHT22;10317;47.254;11.314;2023-02-17T03:01:20;0.90;99.90
20319;DHT22;10317;47.254;11.314;2023-02-17T03:09:01;0.80;99.90
20319;DHT22;10317;47.254;11.314;2023-02-17T03:11:27;0.70;99.90
20319;DHT22;10317;47.254;11.314;2023-02-17T03:14:07;0.70;99.90
20319;DHT22;10317;47.254;11.314;2023-02-17T03:16:34;0.60;99.90
20319;DHT22;10317;47.254;11.314;2023-02-17T03:19:01;0.70;99.90
20319;DHT22;10317;47.254;11.314;2023-02-17T03:24:01;0.60;99.90
20319;DHT22;10317;47.254;11.314;2023-02-17T03:26:27;0.70;99.90
20319;DHT22;10317;47.254;11.314;2023-02-17T03:28:52;0.70;99.90
20319;DHT22;10317;47.254;11.314;2023-02-17T03:31:18;0.60;99.90
20319;DHT22;10317;47.254;11.314;2023-02-17T03:33:44;0.60;99.90
20319;DHT22;10317;47.254;11.314;2023-02-17T03:36:09;0.70;99.90
20319;DHT22;10317;47.254;11.314;2023-02-17T03:38:35;0.70;99.90
20319;DHT22;10317;47.254;11.314;2023-02-17T03:41:01;0.70;99.90
20319;DHT22;10317;47.254;11.314;2023-02-17T03:43:26;0.60;99.90
20319;DHT22;10317;47.254;11.314;2023-02-17T03:45:52;0.60;99.90
20319;DHT22;10317;47.254;11.314;2023-02-17T03:48:18;0.60;99.90
20319;DHT22;10317;47.254;11.314;2023-02-17T03:50:43;0.50;99.90
20319;DHT22;10317;47.254;11.314;2023-02-17T03:53:10;0.50;99.90
20319;DHT22;10317;47.254;11.314;2023-02-17T03:55:36;0.40;99.90
20319;DHT22;10317;47.254;11.314;2023-02-17T03:58:02;0.40;99.90
20319;DHT22;10317;47.254;11.314;2023-02-17T04:00:28;0.30;99.90
20319;DHT22;10317;47.254;11.314;2023-02-17T04:02:53;0.30;99.90
20319;DHT22;10317;47.254;11.314;2023-02-17T04:05:21;0.30;99.90
20319;DHT22;10317;47.254;11.314;2023-02-17T04:07:47;0.30;99.90
20319;DHT22;10317;47.254;11.314;2023-02-17T04:10:13;0.30;99.90
20319;DHT22;10317;47.254;11.314;2023-02-17T04:12:39;0.30;99.90
20319;DHT22;10317;47.254;11.314;2023-02-17T04:15:05;0.30;99.90
20319;DHT22;10317;47.254;11.314;2023-02-17T04:17:31;0.30;99.90
20319;DHT22;10317;47.254;11.314;2023-02-17T04:19:57;0.40;99.90
20319;DHT22;10317;47.254;11.314;2023-02-17T04:22:22;0.40;99.90
20319;DHT22;10317;47.254;11.314;2023-02-17T04:24:48;0.40;99.90
20319;DHT22;10317;47.254;11.314;2023-02-17T04:27:14;0.40;99.90
20319;DHT22;10317;47.254;11.314;2023-02-17T04:29:39;0.50;99.90
20319;DHT22;10317;47.254;11.314;2023-02-17T04:32:05;0.50;99.90
20319;DHT22;10317;47.254;11.314;2023-02-17T04:34:31;0.50;99.90
20319;DHT22;10317;47.254;11.314;2023-02-17T04:36:56;0.50;99.90
20319;DHT22;10317;47.254;11.314;2023-02-17T04:39:22;0.50;99.90
20319;DHT22;10317;47.254;11.314;2023-02-17T04:41:48;0.50;99.90
20319;DHT22;10317;47.254;11.314;2023-02-17T04:44:13;0.50;99.90
20319;DHT22;10317;47.254;11.314;2023-02-17T04:46:39;0.50;99.90
20319;DHT22;10317;47.254;11.314;2023-02-17T04:49:04;0.50;99.90
20319;DHT22;10317;47.254;11.314;2023-02-17T04:51:30;0.60;99.90
20319;DHT22;10317;47.254;11.314;2023-02-17T04:53:56;0.60;99.90
20319;DHT22;10317;47.254;11.314;2023-02-17T04:56:21;0.60;99.90
20319;DHT22;10317;47.254;11.314;2023-02-17T04:58:47;0.60;99.90
20319;DHT22;10317;47.254;11.314;2023-02-17T05:01:13;0.60;99.90
20319;DHT22;10317;47.254;11.314;2023-02-17T05:03:38;0.60;99.90
20319;DHT22;10317;47.254;11.314;2023-02-17T05:06:04;0.60;99.90
20319;DHT22;10317;47.254;11.314;2023-02-17T05:08:30;0.70;99.90
20319;DHT22;10317;47.254;11.314;2023-02-17T05:10:56;0.70;99.90
20319;DHT22;10317;47.254;11.314;2023-02-17T05:13:21;0.60;99.90
20319;DHT22;10317;47.254;11.314;2023-02-17T05:15:47;0.60;99.90
20319;DHT22;10317;47.254;11.314;2023-02-17T05:18:13;0.60;99.90
20319;DHT22;10317;47.254;11.314;2023-02-17T05:20:39;0.60;99.90
20319;DHT22;10317;47.254;11.314;2023-02-17T05:23:05;0.60;99.90
20319;DHT22;10317;47.254;11.314;2023-02-17T05:25:30;0.60;99.90
20319;DHT22;10317;47.254;11.314;2023-02-17T05:27:56;0.60;99.90
20319;DHT22;10317;47.254;11.314;2023-02-17T05:30:23;0.60;99.90
20319;DHT22;10317;47.254;11.314;2023-02-17T05:32:48;0.60;99.90
20319;DHT22;10317;47.254;11.314;2023-02-17T05:35:14;0.70;99.90
20319;DHT22;10317;47.254;11.314;2023-02-17T05:37:40;0.70;99.90
20319;DHT22;10317;47.254;11.314;2023-02-17T05:40:06;0.70;99.90
20319;DHT22;10317;47.254;11.314;2023-02-17T05:42:32;0.70;99.90
20319;DHT22;10317;47.254;11.314;2023-02-17T05:44:58;0.70;99.90
20319;DHT22;10317;47.254;11.314;2023-02-17T05:47:23;0.80;99.90
20319;DHT22;10317;47.254;11.314;2023-02-17T05:49:49;0.80;99.90
20319;DHT22;10317;47.254;11.314;2023-02-17T05:52:15;0.80;99.90
20319;DHT22;10317;47.254;11.314;2023-02-17T05:54:42;0.80;99.90
20319;DHT22;10317;47.254;11.314;2023-02-17T05:57:08;0.80;99.90
20319;DHT22;10317;47.254;11.314;2023-02-17T05:59:34;0.80;99.90
20319;DHT22;10317;47.254;11.314;2023-02-17T06:01:59;0.90;99.90
20319;DHT22;10317;47.254;11.314;2023-02-17T06:04:25;0.80;99.90
20319;DHT22;10317;47.254;11.314;2023-02-17T06:06:51;0.90;99.90
20319;DHT22;10317;47.254;11.314;2023-02-17T06:09:17;1.00;99.90
20319;DHT22;10317;47.254;11.314;2023-02-17T06:11:42;0.90;99.90
20319;DHT22;10317;47.254;11.314;2023-02-17T06:14:08;0.90;99.90
20319;DHT22;10317;47.254;11.314;2023-02-17T06:16:34;0.90;99.90
20319;DHT22;10317;47.254;11.314;2023-02-17T06:19:00;0.90;99.90
20319;DHT22;10317;47.254;11.314;2023-02-17T06:21:27;0.80;99.90
20319;DHT22;10317;47.254;11.314;2023-02-17T06:23:53;0.90;99.90
20319;DHT22;10317;47.254;11.314;2023-02-17T06:26:19;0.90;99.90
20319;DHT22;10317;47.254;11.314;2023-02-17T06:28:44;0.90;99.90
20319;DHT22;10317;47.254;11.314;2023-02-17T06:31:10;0.90;99.90
20319;DHT22;10317;47.254;11.314;2023-02-17T06:33:36;0.90;99.90
20319;DHT22;10317;47.254;11.314;2023-02-17T06:36:02;0.90;99.90
20319;DHT22;10317;47.254;11.314;2023-02-17T06:38:27;0.90;99.90
20319;DHT22;10317;47.254;11.314;2023-02-17T06:40:53;0.90;99.90
20319;DHT22;10317;47.254;11.314;2023-02-17T06:43:19;1.10;99.90
20319;DHT22;10317;47.254;11.314;2023-02-17T06:45:45;1.10;99.90
20319;DHT22;10317;47.254;11.314;2023-02-17T06:48:11;1.10;99.90
20319;DHT22;10317;47.254;11.314;2023-02-17T06:50:37;1.10;99.90
20319;DHT22;10317;47.254;11.314;2023-02-17T06:53:03;1.10;99.90
20319;DHT22;10317;47.254;11.314;2023-02-17T06:55:28;1.20;99.90
20319;DHT22;10317;47.254;11.314;2023-02-17T06:57:54;1.20;99.90
20319;DHT22;10317;47.254;11.314;2023-02-17T07:00:20;1.20;99.90
20319;DHT22;10317;47.254;11.314;2023-02-17T07:02:46;1.30;99.90
20319;DHT22;10317;47.254;11.314;2023-02-17T07:05:11;1.30;99.90
20319;DHT22;10317;47.254;11.314;2023-02-17T07:07:37;1.40;99.90
20319;DHT22;10317;47.254;11.314;2023-02-17T07:10:03;1.40;99.90
20319;DHT22;10317;47.254;11.314;2023-02-17T07:12:29;1.50;99.90
20319;DHT22;10317;47.254;11.314;2023-02-17T07:14:55;1.60;99.90
20319;DHT22;10317;47.254;11.314;2023-02-17T07:17:21;1.70;99.90
20319;DHT22;10317;47.254;11.314;2023-02-17T07:19:46;1.70;99.90
20319;DHT22;10317;47.254;11.314;2023-02-17T07:22:12;1.80;99.90
20319;DHT22;10317;47.254;11.314;2023-02-17T07:24:38;1.90;99.90
20319;DHT22;10317;47.254;11.314;2023-02-17T07:27:04;1.90;99.90
20319;DHT22;10317;47.254;11.314;2023-02-17T07:29:30;2.00;99.90
20319;DHT22;10317;47.254;11.314;2023-02-17T07:31:56;2.10;99.90
20319;DHT22;10317;47.254;11.314;2023-02-17T07:34:22;2.20;99.90
20319;DHT22;10317;47.254;11.314;2023-02-17T07:36:47;2.20;99.90
20319;DHT22;10317;47.254;11.314;2023-02-17T07:39:13;2.40;99.90
20319;DHT22;10317;47.254;11.314;2023-02-17T07:41:39;2.50;99.90
20319;DHT22;10317;47.254;11.314;2023-02-17T07:44:04;2.60;99.90
20319;DHT22;10317;47.254;11.314;2023-02-17T07:46:30;2.70;99.90
20319;DHT22;10317;47.254;11.314;2023-02-17T07:48:56;2.80;99.90
20319;DHT22;10317;47.254;11.314;2023-02-17T07:51:23;2.90;99.90
20319;DHT22;10317;47.254;11.314;2023-02-17T07:53:49;2.90;99.90
20319;DHT22;10317;47.254;11.314;2023-02-17T07:56:17;3.00;99.90
20319;DHT22;10317;47.254;11.314;2023-02-17T07:58:44;3.10;99.90
20319;DHT22;10317;47.254;11.314;2023-02-17T08:01:18;3.20;99.90
20319;DHT22;10317;47.254;11.314;2023-02-17T08:03:44;3.20;99.90
20319;DHT22;10317;47.254;11.314;2023-02-17T08:06:12;3.30;99.90
20319;DHT22;10317;47.254;11.314;2023-02-17T08:08:39;3.40;99.90
20319;DHT22;10317;47.254;11.314;2023-02-17T08:11:24;3.50;99.90
20319;DHT22;10317;47.254;11.314;2023-02-17T08:14:08;3.70;99.90
20319;DHT22;10317;47.254;11.314;2023-02-17T08:16:34;3.80;99.90
20319;DHT22;10317;47.254;11.314;2023-02-17T08:19:01;3.90;99.90
20319;DHT22;10317;47.254;11.314;2023-02-17T08:21:26;4.00;99.90
20319;DHT22;10317;47.254;11.314;2023-02-17T08:23:52;4.00;99.90
20319;DHT22;10317;47.254;11.314;2023-02-17T08:26:19;4.10;99.90
20319;DHT22;10317;47.254;11.314;2023-02-17T08:28:45;4.20;99.90
20319;DHT22;10317;47.254;11.314;2023-02-17T08:31:21;4.30;99.90
20319;DHT22;10317;47.254;11.314;2023-02-17T08:33:47;4.40;99.90
20319;DHT22;10317;47.254;11.314;2023-02-17T08:36:13;4.50;99.90
20319;DHT22;10317;47.254;11.314;2023-02-17T08:38:39;4.60;99.90
20319;DHT22;10317;47.254;11.314;2023-02-17T08:41:15;4.60;99.90
20319;DHT22;10317;47.254;11.314;2023-02-17T08:43:42;4.70;99.90
20319;DHT22;10317;47.254;11.314;2023-02-17T08:46:08;4.70;99.90
20319;DHT22;10317;47.254;11.314;2023-02-17T08:48:34;4.80;99.90
20319;DHT22;10317;47.254;11.314;2023-02-17T08:51:01;5.00;99.90
20319;DHT22;10317;47.254;11.314;2023-02-17T08:53:27;5.00;99.90
20319;DHT22;10317;47.254;11.314;2023-02-17T08:55:52;5.10;99.90
20319;DHT22;10317;47.254;11.314;2023-02-17T08:58:18;5.20;99.90
20319;DHT22;10317;47.254;11.314;2023-02-17T09:00:44;5.20;99.90
20319;DHT22;10317;47.254;11.314;2023-02-17T09:03:09;5.40;99.90
20319;DHT22;10317;47.254;11.314;2023-02-17T09:05:36;5.50;99.90
20319;DHT22;10317;47.254;11.314;2023-02-17T09:08:02;5.60;99.90
20319;DHT22;10317;47.254;11.314;2023-02-17T09:10:28;5.70;99.90
20319;DHT22;10317;47.254;11.314;2023-02-17T09:12:55;5.80;99.90
20319;DHT22;10317;47.254;11.314;2023-02-17T09:15:20;5.90;99.90
20319;DHT22;10317;47.254;11.314;2023-02-17T09:17:46;6.10;99.90
20319;DHT22;10317;47.254;11.314;2023-02-17T09:20:12;6.30;99.90
20319;DHT22;10317;47.254;11.314;2023-02-17T09:22:37;6.50;99.90
20319;DHT22;10317;47.254;11.314;2023-02-17T09:25:04;6.60;99.90
20319;DHT22;10317;47.254;11.314;2023-02-17T09:27:30;6.90;97.50
20319;DHT22;10317;47.254;11.314;2023-02-17T09:29:56;6.90;97.40
20319;DHT22;10317;47.254;11.314;2023-02-17T09:32:22;7.10;98.00
20319;DHT22;10317;47.254;11.314;2023-02-17T09:34:48;7.30;96.20
20319;DHT22;10317;47.254;11.314;2023-02-17T09:37:15;7.40;94.90
20319;DHT22;10317;47.254;11.314;2023-02-17T09:39:42;7.70;95.70
20319;DHT22;10317;47.254;11.314;2023-02-17T09:42:22;8.30;94.90
20319;DHT22;10317;47.254;11.314;2023-02-17T09:44:56;8.80;93.60
20319;DHT22;10317;47.254;11.314;2023-02-17T09:50:13;9.20;91.80
20319;DHT22;10317;47.254;11.314;2023-02-17T09:55:27;9.50;92.00
20319;DHT22;10317;47.254;11.314;2023-02-17T09:58:08;9.50;88.50
20319;DHT22;10317;47.254;11.314;2023-02-17T10:03:33;9.30;90.40
20319;DHT22;10317;47.254;11.314;2023-02-17T10:06:42;9.30;87.20
20319;DHT22;10317;47.254;11.314;2023-02-17T10:09:19;9.30;87.20
20319;DHT22;10317;47.254;11.314;2023-02-17T10:12:07;9.10;82.70
20319;DHT22;10317;47.254;11.314;2023-02-17T10:14:51;9.20;86.10
20319;DHT22;10317;47.254;11.314;2023-02-17T10:17:34;9.30;86.20
20319;DHT22;10317;47.254;11.314;2023-02-17T10:20:11;9.30;86.50
20319;DHT22;10317;47.254;11.314;2023-02-17T10:22:39;9.40;86.50
20319;DHT22;10317;47.254;11.314;2023-02-17T10:25:19;9.40;86.50
20319;DHT22;10317;47.254;11.314;2023-02-17T10:28:08;9.40;84.00
20319;DHT22;10317;47.254;11.314;2023-02-17T10:30:59;9.40;82.40
20319;DHT22;10317;47.254;11.314;2023-02-17T10:38:50;9.90;79.60
20319;DHT22;10317;47.254;11.314;2023-02-17T10:41:20;10.00;81.90
20319;DHT22;10317;47.254;11.314;2023-02-17T10:43:47;10.20;81.00
20319;DHT22;10317;47.254;11.314;2023-02-17T10:46:16;10.20;78.90
20319;DHT22;10317;47.254;11.314;2023-02-17T10:48:47;10.30;79.40
20319;DHT22;10317;47.254;11.314;2023-02-17T10:51:17;10.40;77.60
20319;DHT22;10317;47.254;11.314;2023-02-17T10:53:47;10.50;72.30
20319;DHT22;10317;47.254;11.314;2023-02-17T10:56:24;10.70;74.10
20319;DHT22;10317;47.254;11.314;2023-02-17T10:58:58;10.90;71.80
20319;DHT22;10317;47.254;11.314;2023-02-17T11:01:27;10.90;70.30
20319;DHT22;10317;47.254;11.314;2023-02-17T11:04:01;11.00;70.60
20319;DHT22;10317;47.254;11.314;2023-02-17T11:06:29;11.00;68.20
20319;DHT22;10317;47.254;11.314;2023-02-17T11:08:57;11.10;65.70
20319;DHT22;10317;47.254;11.314;2023-02-17T11:11:29;11.10;67.60
20319;DHT22;10317;47.254;11.314;2023-02-17T11:16:41;11.10;66.00
20319;DHT22;10317;47.254;11.314;2023-02-17T11:21:50;11.30;66.00
20319;DHT22;10317;47.254;11.314;2023-02-17T11:24:16;11.50;66.20
20319;DHT22;10317;47.254;11.314;2023-02-17T11:26:42;11.70;64.70
20319;DHT22;10317;47.254;11.314;2023-02-17T11:29:17;11.80;62.90
20319;DHT22;10317;47.254;11.314;2023-02-17T11:32:00;11.80;61.80
20319;DHT22;10317;47.254;11.314;2023-02-17T11:34:30;11.80;60.50
20319;DHT22;10317;47.254;11.314;2023-02-17T11:39:27;12.00;62.10
20319;DHT22;10317;47.254;11.314;2023-02-17T11:41:53;12.10;63.30
20319;DHT22;10317;47.254;11.314;2023-02-17T11:44:26;12.30;63.10
20319;DHT22;10317;47.254;11.314;2023-02-17T11:47:07;12.20;62.00
20319;DHT22;10317;47.254;11.314;2023-02-17T11:50:00;12.40;59.00
20319;DHT22;10317;47.254;11.314;2023-02-17T12:04:29;13.10;60.50
20319;DHT22;10317;47.254;11.314;2023-02-17T12:13:16;13.40;55.50
20319;DHT22;10317;47.254;11.314;2023-02-17T12:15:49;13.40;56.60
20319;DHT22;10317;47.254;11.314;2023-02-17T12:18:36;13.70;57.30
20319;DHT22;10317;47.254;11.314;2023-02-17T12:21:11;13.70;53.50
20319;DHT22;10317;47.254;11.314;2023-02-17T12:31:50;14.30;53.40
20319;DHT22;10317;47.254;11.314;2023-02-17T12:36:57;14.30;53.80
20319;DHT22;10317;47.254;11.314;2023-02-17T12:39:30;14.30;51.40
20319;DHT22;10317;47.254;11.314;2023-02-17T12:45:02;14.20;56.10
20319;DHT22;10317;47.254;11.314;2023-02-17T12:47:49;14.20;58.60
20319;DHT22;10317;47.254;11.314;2023-02-17T12:52:51;13.90;56.60
20319;DHT22;10317;47.254;11.314;2023-02-17T12:55:28;13.70;57.00
20319;DHT22;10317;47.254;11.314;2023-02-17T12:58:00;13.60;57.90
20319;DHT22;10317;47.254;11.314;2023-02-17T13:00:33;13.50;59.90
20319;DHT22;10317;47.254;11.314;2023-02-17T13:03:00;13.50;60.50
20319;DHT22;10317;47.254;11.314;2023-02-17T13:05:50;13.60;61.20
20319;DHT22;10317;47.254;11.314;2023-02-17T13:08:22;13.80;60.90
20319;DHT22;10317;47.254;11.314;2023-02-17T13:11:25;14.00;61.10
20319;DHT22;10317;47.254;11.314;2023-02-17T13:13:51;14.00;59.40
20319;DHT22;10317;47.254;11.314;2023-02-17T13:16:17;14.00;62.10
20319;DHT22;10317;47.254;11.314;2023-02-17T13:18:44;14.00;60.70
20319;DHT22;10317;47.254;11.314;2023-02-17T13:24:05;13.80;59.10
20319;DHT22;10317;47.254;11.314;2023-02-17T13:26:44;13.60;59.60
20319;DHT22;10317;47.254;11.314;2023-02-17T13:32:03;13.30;60.70
20319;DHT22;10317;47.254;11.314;2023-02-17T13:34:30;13.30;61.40
20319;DHT22;10317;47.254;11.314;2023-02-17T13:36:57;13.30;63.00
20319;DHT22;10317;47.254;11.314;2023-02-17T13:41:55;13.30;64.10
20319;DHT22;10317;47.254;11.314;2023-02-17T13:44:31;13.20;64.50
20319;DHT22;10317;47.254;11.314;2023-02-17T13:47:21;13.20;65.00
20319;DHT22;10317;47.254;11.314;2023-02-17T13:49:55;13.30;63.90
20319;DHT22;10317;47.254;11.314;2023-02-17T13:52:29;13.20;65.90
20319;DHT22;10317;47.254;11.314;2023-02-17T13:55:00;13.30;65.10
20319;DHT22;10317;47.254;11.314;2023-02-17T14:02:36;13.40;65.00
20319;DHT22;10317;47.254;11.314;2023-02-17T14:05:25;13.50;63.60
20319;DHT22;10317;47.254;11.314;2023-02-17T14:07:56;13.50;64.20
20319;DHT22;10317;47.254;11.314;2023-02-17T14:10:24;13.50;63.50
20319;DHT22;10317;47.254;11.314;2023-02-17T14:12:51;13.60;61.40
20319;DHT22;10317;47.254;11.314;2023-02-17T14:15:23;13.60;62.60
20319;DHT22;10317;47.254;11.314;2023-02-17T14:17:50;13.70;62.80
20319;DHT22;10317;47.254;11.314;2023-02-17T14:20:33;13.70;59.60
20319;DHT22;10317;47.254;11.314;2023-02-17T14:23:07;13.60;67.50
20319;DHT22;10317;47.254;11.314;2023-02-17T14:25:35;13.60;66.60
20319;DHT22;10317;47.254;11.314;2023-02-17T14:28:01;13.70;67.40
20319;DHT22;10317;47.254;11.314;2023-02-17T14:30:38;13.70;71.50
20319;DHT22;10317;47.254;11.314;2023-02-17T14:33:05;13.60;68.40
20319;DHT22;10317;47.254;11.314;2023-02-17T14:35:32;13.60;68.90
20319;DHT22;10317;47.254;11.314;2023-02-17T14:38:27;13.60;63.70
20319;DHT22;10317;47.254;11.314;2023-02-17T14:40:53;13.70;65.50
20319;DHT22;10317;47.254;11.314;2023-02-17T14:43:21;13.60;70.80
20319;DHT22;10317;47.254;11.314;2023-02-17T14:45:47;13.60;71.00
20319;DHT22;10317;47.254;11.314;2023-02-17T14:48:13;13.50;71.80
20319;DHT22;10317;47.254;11.314;2023-02-17T14:50:39;13.40;70.60
20319;DHT22;10317;47.254;11.314;2023-02-17T14:53:27;13.40;68.70
20319;DHT22;10317;47.254;11.314;2023-02-17T14:56:47;13.60;69.00
20319;DHT22;10317;47.254;11.314;2023-02-17T14:58:47;13.80;68.40
20319;DHT22;10317;47.254;11.314;2023-02-17T15:01:16;14.10;66.50
20319;DHT22;10317;47.254;11.314;2023-02-17T15:03:42;14.40;66.30
20319;DHT22;10317;47.254;11.314;2023-02-17T15:08:45;14.90;65.40
20319;DHT22;10317;47.254;11.314;2023-02-17T15:11:32;15.00;65.80
20319;DHT22;10317;47.254;11.314;2023-02-17T15:14:05;15.00;65.50
20319;DHT22;10317;47.254;11.314;2023-02-17T15:16:31;14.90;66.80
20319;DHT22;10317;47.254;11.314;2023-02-17T15:18:57;14.90;66.00
20319;DHT22;10317;47.254;11.314;2023-02-17T15:21:26;15.00;65.90
20319;DHT22;10317;47.254;11.314;2023-02-17T15:23:53;15.00;66.10
20319;DHT22;10317;47.254;11.314;2023-02-17T15:26:20;14.90;66.60
20319;DHT22;10317;47.254;11.314;2023-02-17T15:28:46;14.90;67.10
20319;DHT22;10317;47.254;11.314;2023-02-17T15:31:12;14.80;67.80
20319;DHT22;10317;47.254;11.314;2023-02-17T15:33:43;14.70;68.40
20319;DHT22;10317;47.254;11.314;2023-02-17T15:36:13;14.60;67.50
20319;DHT22;10317;47.254;11.314;2023-02-17T15:38:40;14.50;68.20
20319;DHT22;10317;47.254;11.314;2023-02-17T15:41:26;14.40;68.70
20319;DHT22;10317;47.254;11.314;2023-02-17T15:43:53;14.30;68.50
20319;DHT22;10317;47.254;11.314;2023-02-17T15:46:20;14.40;68.40
20319;DHT22;10317;47.254;11.314;2023-02-17T15:48:47;14.30;68.90
20319;DHT22;10317;47.254;11.314;2023-02-17T15:51:15;14.20;69.50
20319;DHT22;10317;47.254;11.314;2023-02-17T15:53:46;14.00;69.80
20319;DHT22;10317;47.254;11.314;2023-02-17T15:56:21;14.00;69.80
20319;DHT22;10317;47.254;11.314;2023-02-17T15:58:48;14.00;70.40
20319;DHT22;10317;47.254;11.314;2023-02-17T16:01:27;14.10;69.60
20319;DHT22;10317;47.254;11.314;2023-02-17T16:03:54;14.00;70.30
20319;DHT22;10317;47.254;11.314;2023-02-17T16:06:20;13.90;70.40
20319;DHT22;10317;47.254;11.314;2023-02-17T16:08:46;13.90;70.80
20319;DHT22;10317;47.254;11.314;2023-02-17T16:11:12;13.70;71.20
20319;DHT22;10317;47.254;11.314;2023-02-17T16:13:43;13.60;71.40
20319;DHT22;10317;47.254;11.314;2023-02-17T16:16:17;13.60;71.70
20319;DHT22;10317;47.254;11.314;2023-02-17T16:18:45;13.50;72.00
20319;DHT22;10317;47.254;11.314;2023-02-17T16:21:11;13.50;71.80
20319;DHT22;10317;47.254;11.314;2023-02-17T16:23:38;13.40;72.40
20319;DHT22;10317;47.254;11.314;2023-02-17T16:26:05;13.40;72.70
20319;DHT22;10317;47.254;11.314;2023-02-17T16:28:31;13.40;72.90
20319;DHT22;10317;47.254;11.314;2023-02-17T16:30:57;13.30;73.60
20319;DHT22;10317;47.254;11.314;2023-02-17T16:33:22;13.30;73.40
20319;DHT22;10317;47.254;11.314;2023-02-17T16:35:49;13.20;73.50
20319;DHT22;10317;47.254;11.314;2023-02-17T16:38:21;13.20;73.30
20319;DHT22;10317;47.254;11.314;2023-02-17T16:40:49;13.10;74.00
20319;DHT22;10317;47.254;11.314;2023-02-17T16:43:17;13.00;74.60
20319;DHT22;10317;47.254;11.314;2023-02-17T16:45:56;12.80;75.60
20319;DHT22;10317;47.254;11.314;2023-02-17T16:48:23;12.70;73.40
20319;DHT22;10317;47.254;11.314;2023-02-17T16:50:49;12.60;73.90
20319;DHT22;10317;47.254;11.314;2023-02-17T16:53:15;12.50;72.50
20319;DHT22;10317;47.254;11.314;2023-02-17T16:55:42;12.40;70.10
20319;DHT22;10317;47.254;11.314;2023-02-17T16:58:17;12.20;68.70
20319;DHT22;10317;47.254;11.314;2023-02-17T17:00:43;12.00;70.80
20319;DHT22;10317;47.254;11.314;2023-02-17T17:03:09;11.80;70.10
20319;DHT22;10317;47.254;11.314;2023-02-17T17:05:35;11.80;71.60
20319;DHT22;10317;47.254;11.314;2023-02-17T17:08:02;11.70;70.70
20319;DHT22;10317;47.254;11.314;2023-02-17T17:10:30;11.60;71.20
20319;DHT22;10317;47.254;11.314;2023-02-17T17:12:56;11.50;71.20
20319;DHT22;10317;47.254;11.314;2023-02-17T17:15:22;11.50;70.90